Woodland Hills, California
Current Conditions -  °F | °C
As of 7:51 PM on Wednesday 17 Dec 2014 (Local Time) from KVNY Reporting Station
Clear Clear  
Wind Chill: 53°   Ceiling: Unl
Heat Index: 53°   Visibility: 10mi
Dew Point: 44°   Wind: 0mph
Humidity: 71%   Direction: NA
Pressure: 30.08"   Gusts: NA
Location:  34.17°N, 118.6°W
Report Text: KVNY 180351Z 00000KT 10SM CLR 12/07 A3008 RMK AO2 SLP184 T01170067
Loading
Personal Weather Stations






























Interactive Weather Map New forecast layout! Learn more

10-Day Weather Forecast

Advertisements
Track Severe Weather on mobile